createdAt,value
2019-06-10T00:02:07.872Z,5.70
2019-06-10T00:04:35.521Z,5.30
2019-06-10T00:07:04.165Z,6.23
2019-06-10T00:09:32.742Z,6.27
2019-06-10T00:12:02.577Z,6.13
2019-06-10T00:14:31.494Z,7.73
2019-06-10T00:17:01.619Z,9.23
2019-06-10T00:19:31.564Z,9.57
2019-06-10T00:21:59.911Z,8.00
2019-06-10T00:24:28.293Z,8.10
2019-06-10T00:26:56.078Z,8.83
2019-06-10T00:29:26.134Z,6.30
2019-06-10T00:31:58.503Z,5.87
2019-06-10T00:34:26.378Z,8.83
2019-06-10T00:36:54.031Z,8.23
2019-06-10T00:39:22.291Z,8.63
2019-06-10T00:41:52.183Z,10.27
2019-06-10T00:44:20.590Z,9.77
2019-06-10T00:46:48.402Z,8.60
2019-06-10T00:49:17.049Z,9.23
2019-06-10T00:51:44.810Z,6.13
2019-06-10T00:54:15.393Z,9.73
2019-06-10T00:56:43.024Z,9.83
2019-06-10T00:59:13.384Z,6.90
2019-06-10T01:01:41.601Z,6.37
2019-06-10T01:04:14.386Z,8.30
2019-06-10T01:06:38.969Z,5.80
2019-06-10T01:09:08.779Z,7.87
2019-06-10T01:11:37.383Z,7.20
2019-06-10T01:14:05.217Z,11.10
2019-06-10T01:16:32.973Z,8.37
2019-06-10T01:19:01.477Z,8.83
2019-06-10T01:21:31.179Z,9.97
2019-06-10T01:24:01.061Z,7.50
2019-06-10T01:26:30.829Z,9.20
2019-06-10T01:28:58.169Z,8.17
2019-06-10T01:31:25.698Z,12.60
2019-06-10T01:33:53.351Z,9.23
2019-06-10T01:36:21.212Z,7.67
2019-06-10T01:38:51.096Z,10.80
2019-06-10T01:41:18.576Z,7.63
2019-06-10T01:43:47.228Z,8.80
2019-06-10T01:46:16.260Z,7.83
2019-06-10T01:48:48.108Z,10.17
2019-06-10T01:51:17.681Z,10.93
2019-06-10T01:53:46.537Z,8.47
2019-06-10T01:56:15.485Z,10.73
2019-06-10T01:58:43.749Z,6.47
2019-06-10T02:01:20.091Z,7.10
2019-06-10T02:03:48.722Z,7.77
2019-06-10T02:06:19.901Z,7.87
2019-06-10T02:08:45.884Z,10.37
2019-06-10T02:11:15.541Z,8.33
2019-06-10T02:13:43.206Z,11.37
2019-06-10T02:16:14.112Z,9.80
2019-06-10T02:18:42.241Z,8.40
2019-06-10T02:21:14.297Z,8.07
2019-06-10T02:23:41.208Z,9.60
2019-06-10T02:26:11.299Z,8.80
2019-06-10T02:28:40.579Z,8.37
2019-06-10T02:31:08.409Z,10.47
2019-06-10T02:33:36.800Z,8.70
2019-06-10T02:36:05.019Z,7.03
2019-06-10T02:38:38.667Z,6.20
2019-06-10T02:41:04.450Z,10.23
2019-06-10T02:43:37.556Z,11.60
2019-06-10T02:46:04.754Z,7.60
2019-06-10T02:48:34.938Z,7.47
2019-06-10T02:51:04.773Z,6.20
2019-06-10T02:53:35.994Z,9.00
2019-06-10T02:56:04.348Z,8.97
2019-06-10T02:58:38.355Z,8.37
2019-06-10T03:01:04.278Z,8.37
2019-06-10T03:03:39.243Z,9.53
2019-06-10T03:06:06.941Z,8.10
2019-06-10T03:08:35.901Z,10.27
2019-06-10T03:11:03.732Z,12.23
2019-06-10T03:13:33.009Z,8.40
2019-06-10T03:16:22.179Z,9.53
2019-06-10T03:18:49.436Z,8.40
2019-06-10T03:21:17.978Z,8.47
2019-06-10T03:23:45.722Z,9.50
2019-06-10T03:26:13.341Z,7.30
2019-06-10T03:28:42.721Z,6.80
2019-06-10T03:31:10.530Z,8.77
2019-06-10T03:33:42.146Z,7.60
2019-06-10T03:36:07.685Z,7.97
2019-06-10T03:38:37.079Z,7.67
2019-06-10T03:41:04.872Z,7.37
2019-06-10T03:43:33.134Z,8.40
2019-06-10T03:46:03.005Z,6.60
2019-06-10T03:48:32.565Z,6.53
2019-06-10T03:51:03.275Z,7.97
2019-06-10T03:53:33.376Z,8.73
2019-06-10T03:56:02.266Z,11.00
2019-06-10T03:58:32.479Z,7.07
2019-06-10T04:00:59.698Z,9.37
2019-06-10T04:03:28.125Z,8.37
2019-06-10T04:05:56.940Z,7.20
2019-06-10T04:08:25.399Z,7.07
2019-06-10T04:10:54.197Z,7.47
2019-06-10T04:13:23.978Z,8.77
2019-06-10T04:15:53.328Z,7.70
2019-06-10T04:18:22.527Z,11.33
2019-06-10T04:20:52.759Z,11.93
2019-06-10T04:23:22.713Z,8.37
2019-06-10T04:25:49.767Z,10.57
2019-06-10T04:28:17.795Z,9.10
2019-06-10T04:30:45.513Z,7.07
2019-06-10T04:33:13.149Z,8.63
2019-06-10T04:35:42.759Z,9.40
2019-06-10T04:38:13.087Z,7.13
2019-06-10T04:40:42.960Z,8.90
2019-06-10T04:43:12.412Z,9.50
2019-06-10T04:45:42.842Z,7.63
2019-06-10T04:48:12.289Z,8.77
2019-06-10T04:50:45.494Z,8.03
2019-06-10T04:53:09.368Z,11.37
2019-06-10T04:55:37.023Z,8.77
2019-06-10T04:58:04.650Z,12.40
2019-06-10T05:00:33.096Z,8.43
2019-06-10T05:03:02.862Z,9.80
2019-06-10T05:05:32.716Z,12.33
2019-06-10T05:08:02.519Z,8.20
2019-06-10T05:10:29.974Z,8.37
2019-06-10T05:12:57.789Z,8.20
2019-06-10T05:15:28.404Z,6.87
2019-06-10T05:17:55.112Z,7.40
2019-06-10T05:20:39.963Z,9.23
2019-06-10T05:22:59.402Z,10.33
2019-06-10T05:25:28.396Z,11.83
2019-06-10T05:27:56.316Z,8.63
2019-06-10T05:30:26.283Z,14.77
2019-06-10T05:33:03.376Z,11.47
2019-06-10T05:35:35.321Z,11.30
2019-06-10T05:38:03.217Z,9.53
2019-06-10T05:40:33.746Z,10.93
2019-06-10T05:43:02.452Z,11.03
2019-06-10T05:45:30.557Z,8.10
2019-06-10T05:47:58.346Z,9.20
2019-06-10T05:50:26.791Z,8.20
2019-06-10T05:52:54.599Z,10.07
2019-06-10T05:55:22.843Z,8.87
2019-06-10T05:57:53.263Z,13.23
2019-06-10T06:00:22.957Z,10.27
2019-06-10T06:02:52.253Z,12.87
2019-06-10T06:05:22.107Z,12.03
2019-06-10T06:08:02.348Z,8.77
2019-06-10T06:10:19.230Z,11.43
2019-06-10T06:12:46.892Z,10.13
2019-06-10T06:15:14.721Z,13.80
2019-06-10T06:17:43.184Z,11.70
2019-06-10T06:20:13.345Z,14.57
2019-06-10T06:22:42.680Z,16.20
2019-06-10T06:25:15.193Z,10.90
2019-06-10T06:27:42.163Z,13.63
2019-06-10T06:30:13.775Z,11.33
2019-06-10T06:32:39.840Z,10.03
2019-06-10T06:35:07.473Z,14.00
2019-06-10T06:37:37.683Z,10.73
2019-06-10T06:40:05.341Z,12.03
2019-06-10T06:42:35.044Z,11.87
2019-06-10T06:45:03.131Z,10.20
2019-06-10T06:47:34.054Z,10.73
2019-06-10T06:50:02.561Z,8.53
2019-06-10T06:52:56.705Z,15.37
2019-06-10T06:54:59.633Z,10.00
2019-06-10T06:57:27.282Z,11.17
2019-06-10T06:59:54.922Z,12.17
2019-06-10T07:02:23.254Z,11.73
2019-06-10T07:04:52.611Z,11.33
2019-06-10T07:07:22.249Z,6.90
2019-06-10T07:09:52.654Z,9.70
2019-06-10T07:12:23.414Z,12.73
2019-06-10T07:14:52.591Z,8.37
2019-06-10T07:17:22.610Z,10.87
2019-06-10T07:19:49.900Z,10.00
2019-06-10T07:22:19.429Z,10.90
2019-06-10T07:24:47.705Z,10.37
2019-06-10T07:27:15.543Z,11.10
2019-06-10T07:29:46.937Z,9.53
2019-06-10T07:32:12.690Z,9.10
2019-06-10T07:34:41.676Z,11.60
2019-06-10T07:37:10.022Z,9.17
2019-06-10T07:39:39.614Z,11.13
2019-06-10T07:42:07.411Z,11.10
2019-06-10T07:44:36.325Z,9.60
2019-06-10T07:47:09.144Z,11.13
2019-06-10T07:49:37.223Z,10.20
2019-06-10T07:52:15.882Z,8.80
2019-06-10T07:54:35.930Z,8.40
2019-06-10T07:57:04.110Z,9.03
2019-06-10T07:59:32.588Z,7.03
2019-06-10T08:02:03.089Z,10.67
2019-06-10T08:04:33.169Z,9.13
2019-06-10T08:07:03.181Z,9.10
2019-06-10T08:09:30.346Z,7.87
2019-06-10T08:11:58.100Z,11.37
2019-06-10T08:14:25.804Z,13.97
2019-06-10T08:16:53.532Z,9.83
2019-06-10T08:19:33.332Z,10.03
2019-06-10T08:21:53.690Z,7.27
2019-06-10T08:24:22.135Z,7.83
2019-06-10T08:26:50.091Z,9.73
2019-06-10T08:29:17.759Z,8.57
2019-06-10T08:31:48.463Z,9.63
2019-06-10T08:34:15.082Z,10.07
2019-06-10T08:36:47.120Z,9.73
2019-06-10T08:39:15.759Z,9.53
2019-06-10T08:41:44.073Z,6.23
2019-06-10T08:44:12.687Z,8.17
2019-06-10T08:46:41.025Z,12.47
2019-06-10T08:49:12.494Z,7.03
2019-06-10T08:51:39.821Z,7.40
2019-06-10T08:54:07.607Z,7.70
2019-06-10T08:56:35.299Z,8.67
2019-06-10T08:59:03.994Z,8.10
2019-06-10T09:01:33.483Z,7.37
2019-06-10T09:04:03.088Z,6.83
2019-06-10T09:06:32.950Z,8.40
2019-06-10T09:09:02.688Z,9.10
2019-06-10T09:11:32.857Z,6.33
2019-06-10T09:14:02.591Z,5.23
2019-06-10T09:16:32.425Z,6.57
2019-06-10T09:19:02.107Z,6.00
2019-06-10T09:21:29.720Z,8.03
2019-06-10T09:24:00.055Z,7.20
2019-06-10T09:26:27.272Z,5.03
2019-06-10T09:28:56.615Z,8.73
2019-06-10T09:31:24.626Z,4.50
2019-06-10T09:33:56.724Z,8.03
2019-06-10T09:36:23.522Z,4.90
2019-06-10T09:38:55.069Z,4.53
2019-06-10T09:41:30.911Z,3.93
2019-06-10T09:43:56.504Z,6.93
2019-06-10T09:46:23.266Z,3.90
2019-06-10T09:48:55.724Z,5.63
2019-06-10T09:51:23.122Z,6.33
2019-06-10T09:54:02.438Z,8.27
2019-06-10T09:56:22.837Z,4.03
2019-06-10T09:58:52.915Z,5.07
2019-06-10T10:01:19.629Z,3.13
2019-06-10T10:03:51.909Z,5.20
2019-06-10T10:06:16.881Z,5.13
2019-06-10T10:08:47.390Z,5.27
2019-06-10T10:11:14.209Z,4.30
2019-06-10T10:13:44.974Z,4.47
2019-06-10T10:16:13.126Z,3.30
2019-06-10T10:18:46.958Z,7.30
2019-06-10T10:21:13.061Z,4.97
2019-06-10T10:23:52.478Z,4.40
2019-06-10T10:26:13.139Z,9.30
2019-06-10T10:28:42.802Z,5.77
2019-06-10T10:31:13.143Z,6.50
2019-06-10T10:33:40.393Z,6.10
2019-06-10T10:36:08.112Z,7.50
2019-06-10T10:38:35.889Z,6.13
2019-06-10T10:41:04.985Z,4.93
2019-06-10T10:43:37.192Z,8.80
2019-06-10T10:46:05.505Z,6.03
2019-06-10T10:48:33.601Z,4.67
2019-06-10T10:51:03.371Z,5.70
2019-06-10T10:53:32.841Z,6.10
2019-06-10T10:56:02.314Z,3.97
2019-06-10T10:58:32.263Z,5.87
2019-06-10T11:01:03.062Z,4.63
2019-06-10T11:03:29.945Z,5.73
2019-06-10T11:06:00.943Z,5.70
2019-06-10T11:08:27.308Z,4.73
2019-06-10T11:11:00.827Z,5.30
2019-06-10T11:13:27.929Z,4.43
2019-06-10T11:15:57.121Z,3.70
2019-06-10T11:18:25.390Z,5.03
2019-06-10T11:20:54.065Z,4.10
2019-06-10T11:23:22.857Z,5.00
2019-06-10T11:25:55.251Z,3.93
2019-06-10T11:28:22.840Z,8.23
2019-06-10T11:30:54.414Z,7.27
2019-06-10T11:33:22.754Z,3.87
2019-06-10T11:35:51.475Z,4.87
2019-06-10T11:38:19.551Z,4.10
2019-06-10T11:40:47.247Z,5.97
2019-06-10T11:43:14.937Z,6.73
2019-06-10T11:45:48.268Z,5.77
2019-06-10T11:48:13.008Z,4.13
2019-06-10T11:50:42.816Z,6.33
2019-06-10T11:53:12.795Z,6.30
2019-06-10T11:55:42.250Z,5.47
2019-06-10T11:58:09.727Z,6.80
2019-06-10T12:00:37.412Z,6.97
2019-06-10T12:03:05.273Z,5.67
2019-06-10T12:05:33.100Z,5.30
2019-06-10T12:08:02.739Z,6.57
2019-06-10T12:10:33.146Z,6.37
2019-06-10T12:13:07.105Z,5.20
2019-06-10T12:16:09.685Z,4.40
2019-06-10T12:18:08.603Z,6.73
2019-06-10T12:20:37.429Z,5.03
2019-06-10T12:23:07.199Z,5.50
2019-06-10T12:25:39.654Z,5.50
2019-06-10T12:28:08.425Z,5.67
2019-06-10T12:30:38.066Z,4.37
2019-06-10T12:33:07.729Z,3.63
2019-06-10T12:35:37.329Z,7.60
2019-06-10T12:38:06.975Z,4.83
2019-06-10T12:40:56.871Z,5.30
2019-06-10T12:43:43.321Z,4.10
2019-06-10T12:46:29.337Z,3.67
2019-06-10T12:49:18.482Z,4.47
2019-06-10T12:51:47.145Z,6.40
2019-06-10T12:54:16.744Z,4.00
2019-06-10T12:56:46.426Z,5.10
2019-06-10T12:59:14.305Z,6.43
2019-06-10T13:01:44.766Z,3.60
2019-06-10T13:04:13.935Z,7.60
2019-06-10T13:06:44.840Z,13.97
2019-06-10T13:09:13.058Z,4.03
2019-06-10T13:11:43.180Z,10.50
2019-06-10T13:14:12.835Z,7.07
2019-06-10T13:16:41.120Z,5.67
2019-06-10T13:19:09.676Z,4.83
2019-06-10T13:21:37.325Z,4.57
2019-06-10T13:24:06.032Z,6.07
2019-06-10T13:26:36.125Z,5.70
2019-06-10T13:29:06.979Z,4.90
2019-06-10T13:31:33.957Z,4.40
2019-06-10T13:34:06.567Z,8.03
2019-06-10T13:36:33.063Z,6.57
2019-06-10T13:39:03.978Z,3.83
2019-06-10T13:41:33.378Z,7.57
2019-06-10T13:44:02.108Z,5.23
2019-06-10T13:46:30.017Z,6.93
2019-06-10T13:48:57.794Z,6.07
2019-06-10T13:51:25.699Z,4.87
2019-06-10T13:53:53.858Z,4.43
2019-06-10T13:56:39.751Z,4.73
2019-06-10T13:58:52.288Z,8.07
2019-06-10T14:01:22.009Z,6.60
2019-06-10T14:03:49.785Z,4.77
2019-06-10T14:06:36.869Z,6.50
2019-06-10T14:08:47.065Z,6.63
2019-06-10T14:11:14.761Z,5.90
2019-06-10T14:13:43.300Z,5.23
2019-06-10T14:16:14.018Z,5.03
2019-06-10T14:18:42.407Z,5.17
2019-06-10T14:21:17.311Z,8.10
2019-06-10T14:23:42.214Z,8.40
2019-06-10T14:26:10.043Z,6.90
2019-06-10T14:28:41.196Z,5.20
2019-06-10T14:31:30.222Z,5.70
2019-06-10T14:33:38.264Z,7.33
2019-06-10T14:36:07.560Z,5.30
2019-06-10T14:38:35.622Z,7.83
2019-06-10T14:41:04.916Z,6.50
2019-06-10T14:43:33.423Z,5.87
2019-06-10T14:46:01.201Z,6.17
2019-06-10T14:48:29.010Z,5.93
2019-06-10T14:50:56.681Z,5.00
2019-06-10T14:53:24.389Z,7.97
2019-06-10T14:55:53.380Z,6.03
2019-06-10T14:58:23.023Z,5.53
2019-06-10T15:00:54.223Z,5.67
2019-06-10T15:03:20.616Z,6.03
2019-06-10T15:05:48.346Z,5.07
2019-06-10T15:08:17.304Z,7.40
2019-06-10T15:10:45.145Z,5.10
2019-06-10T15:13:13.857Z,7.07
2019-06-10T15:15:42.444Z,6.37
2019-06-10T15:18:12.197Z,8.63
2019-06-10T15:20:42.628Z,6.20
2019-06-10T15:23:11.506Z,5.97
2019-06-10T15:25:50.266Z,6.53
2019-06-10T15:28:09.968Z,6.77
2019-06-10T15:30:38.417Z,5.07
2019-06-10T15:33:06.093Z,6.77
2019-06-10T15:35:33.790Z,7.57
2019-06-10T15:38:04.175Z,6.43
2019-06-10T15:40:32.490Z,6.20
2019-06-10T15:43:00.492Z,6.63
2019-06-10T15:45:29.225Z,6.40
2019-06-10T15:47:56.894Z,6.30
2019-06-10T15:50:27.528Z,6.37
2019-06-10T15:52:54.386Z,7.13
2019-06-10T15:55:48.385Z,6.03
2019-06-10T15:57:54.162Z,4.50
2019-06-10T16:00:28.105Z,5.47
2019-06-10T16:02:51.240Z,5.97
2019-06-10T16:05:19.389Z,4.97
2019-06-10T16:07:48.389Z,6.23
2019-06-10T16:10:19.626Z,5.40
2019-06-10T16:12:45.629Z,6.13
2019-06-10T16:15:16.138Z,4.93
2019-06-10T16:17:43.345Z,6.20
2019-06-10T16:20:13.035Z,4.80
2019-06-10T16:22:42.751Z,6.07
2019-06-10T16:25:12.536Z,6.57
2019-06-10T16:27:47.089Z,6.27
2019-06-10T16:30:09.674Z,5.73
2019-06-10T16:32:37.373Z,8.27
2019-06-10T16:35:05.369Z,7.67
2019-06-10T16:37:33.033Z,7.13
2019-06-10T16:40:03.168Z,29.10
2019-06-10T16:42:32.170Z,18.57
2019-06-10T16:45:02.536Z,8.63
2019-06-10T16:47:32.675Z,7.43
2019-06-10T16:50:03.039Z,5.80
2019-06-10T16:52:30.423Z,6.00
2019-06-10T16:54:58.248Z,7.33
2019-06-10T16:57:27.290Z,6.77
2019-06-10T16:59:55.272Z,7.13
2019-06-10T17:02:25.077Z,8.20
2019-06-10T17:04:52.733Z,8.67
2019-06-10T17:07:20.584Z,7.90
2019-06-10T17:09:48.388Z,6.47
2019-06-10T17:12:16.037Z,5.27
2019-06-10T17:14:43.721Z,7.37
2019-06-10T17:17:12.694Z,9.20
2019-06-10T17:19:40.522Z,5.20
2019-06-10T17:22:08.260Z,5.43
2019-06-10T17:24:35.993Z,7.83
2019-06-10T17:27:03.952Z,8.20
2019-06-10T17:29:33.429Z,6.20
2019-06-10T17:32:02.833Z,8.87
2019-06-10T17:34:31.403Z,6.23
2019-06-10T17:37:00.342Z,8.67
2019-06-10T17:39:28.613Z,6.93
2019-06-10T17:41:57.632Z,6.00
2019-06-10T17:44:27.803Z,7.40
2019-06-10T17:46:54.896Z,7.63
2019-06-10T17:49:25.362Z,7.07
2019-06-10T17:51:52.637Z,6.73
2019-06-10T17:54:22.515Z,5.17
2019-06-10T17:56:50.016Z,5.07
2019-06-10T17:59:17.774Z,5.57
2019-06-10T18:01:45.453Z,5.60
2019-06-10T18:04:13.171Z,5.07
2019-06-10T18:06:42.452Z,4.77
2019-06-10T18:09:12.293Z,6.03
2019-06-10T18:11:40.020Z,6.30
2019-06-10T18:14:07.681Z,5.20
2019-06-10T18:16:36.668Z,5.83
2019-06-10T18:19:04.631Z,7.27
2019-06-10T18:21:33.506Z,5.00
2019-06-10T18:24:08.097Z,7.27
2019-06-10T18:26:35.926Z,6.73
2019-06-10T18:29:08.146Z,8.77
2019-06-10T18:31:34.008Z,9.70
2019-06-10T18:34:02.467Z,5.53
2019-06-10T18:36:32.665Z,5.83
2019-06-10T18:39:00.089Z,6.70
2019-06-10T18:41:27.948Z,7.50
2019-06-10T18:43:55.763Z,7.53
2019-06-10T18:46:23.446Z,7.03
2019-06-10T18:48:53.491Z,8.30
2019-06-10T18:51:22.596Z,7.20
2019-06-10T18:53:50.464Z,7.40
2019-06-10T18:56:18.181Z,6.93
2019-06-10T18:58:46.867Z,8.33
2019-06-10T19:01:14.649Z,6.67
2019-06-10T19:03:43.064Z,6.97
2019-06-10T19:06:12.552Z,11.40
2019-06-10T19:08:43.380Z,9.30
2019-06-10T19:11:10.124Z,9.20
2019-06-10T19:13:39.174Z,7.87
2019-06-10T19:16:07.449Z,8.37
2019-06-10T19:18:36.073Z,8.53
2019-06-10T19:21:06.256Z,9.00
2019-06-10T19:23:35.039Z,7.40
2019-06-10T19:26:03.198Z,10.60
2019-06-10T19:28:33.406Z,9.33
2019-06-10T19:31:02.391Z,8.17
2019-06-10T19:33:34.078Z,6.93
2019-06-10T19:36:02.262Z,7.57
2019-06-10T19:38:32.423Z,9.80
2019-06-10T19:40:59.816Z,12.10
2019-06-10T19:43:27.602Z,11.50
2019-06-10T19:45:55.282Z,13.03
2019-06-10T19:48:23.242Z,10.07
2019-06-10T19:50:53.780Z,13.13
2019-06-10T19:53:22.199Z,10.63
2019-06-10T19:55:50.008Z,11.73
2019-06-10T19:58:17.759Z,14.47
2019-06-10T20:00:50.876Z,11.50
2019-06-10T20:03:14.990Z,13.70
2019-06-10T20:05:45.271Z,11.50
2019-06-10T20:08:47.325Z,10.63
2019-06-10T20:11:15.027Z,10.53
2019-06-10T20:13:43.647Z,13.13
2019-06-10T20:16:12.266Z,12.53
2019-06-10T20:18:40.504Z,13.87
2019-06-10T20:21:09.581Z,12.97
2019-06-10T20:23:37.410Z,12.13
2019-06-10T20:26:06.052Z,8.90
2019-06-10T20:28:33.913Z,12.20
2019-06-10T20:31:01.756Z,9.47
2019-06-10T20:33:36.172Z,12.80
2019-06-10T20:36:06.311Z,12.87
2019-06-10T20:38:32.524Z,11.03
2019-06-10T20:41:02.419Z,12.00
2019-06-10T20:43:29.981Z,12.60
2019-06-10T20:45:58.329Z,20.53
2019-06-10T20:48:27.389Z,13.30
2019-06-10T20:50:55.075Z,8.90
2019-06-10T20:53:22.761Z,11.87
2019-06-10T20:55:54.987Z,10.33
2019-06-10T20:58:22.159Z,12.53
2019-06-10T21:00:53.904Z,8.40
2019-06-10T21:03:19.109Z,13.27
2019-06-10T21:05:50.018Z,12.53
2019-06-10T21:08:17.882Z,12.37
2019-06-10T21:10:48.028Z,10.37
2019-06-10T21:13:15.069Z,10.70
2019-06-10T21:15:45.665Z,13.50
2019-06-10T21:18:13.162Z,9.33
2019-06-10T21:20:44.455Z,8.97
2019-06-10T21:23:15.394Z,9.80
2019-06-10T21:25:41.221Z,11.33
2019-06-10T21:28:09.785Z,15.40
2019-06-10T21:30:41.899Z,11.17
2019-06-10T21:33:07.025Z,8.90
2019-06-10T21:35:34.670Z,13.80
2019-06-10T21:38:03.059Z,10.60
2019-06-10T21:40:32.834Z,13.60
2019-06-10T21:43:02.569Z,12.57
2019-06-10T21:45:32.301Z,13.47
2019-06-10T21:47:59.365Z,13.17
2019-06-10T21:50:27.078Z,10.33
2019-06-10T21:52:54.846Z,9.37
2019-06-10T21:55:22.604Z,10.63
2019-06-10T21:57:51.573Z,9.77
2019-06-10T22:00:25.876Z,8.20
2019-06-10T22:02:58.428Z,12.43
2019-06-10T22:05:24.997Z,7.13
2019-06-10T22:07:56.012Z,8.00
2019-06-10T22:10:22.992Z,9.87
2019-06-10T22:12:52.732Z,10.70
2019-06-10T22:15:22.463Z,7.10
2019-06-10T22:17:50.493Z,7.97
2019-06-10T22:20:22.718Z,6.73
2019-06-10T22:22:53.212Z,9.43
2019-06-10T22:25:22.251Z,6.50
2019-06-10T22:27:50.055Z,8.73
2019-06-10T22:30:17.988Z,6.57
2019-06-10T22:32:45.717Z,9.47
2019-06-10T22:35:13.369Z,5.27
2019-06-10T22:37:41.021Z,6.00
2019-06-10T22:40:08.868Z,5.90
2019-06-10T22:42:36.495Z,5.57
2019-06-10T22:45:04.609Z,6.17
2019-06-10T22:47:32.437Z,8.63
2019-06-10T22:50:04.805Z,7.87
2019-06-10T22:52:32.021Z,4.23
2019-06-10T22:55:01.061Z,6.63
2019-06-10T22:57:28.884Z,6.73
2019-06-10T22:59:57.780Z,4.30
2019-06-10T23:02:26.135Z,4.80
2019-06-10T23:05:01.376Z,5.00
2019-06-10T23:07:27.792Z,3.63
2019-06-10T23:09:56.335Z,4.27
2019-06-10T23:12:24.952Z,3.90
2019-06-10T23:14:53.612Z,4.97
2019-06-10T23:17:22.133Z,4.20
2019-06-10T23:19:51.590Z,6.10
2019-06-10T23:22:19.314Z,5.40
2019-06-10T23:24:46.939Z,5.47
2019-06-10T23:27:14.550Z,3.13
2019-06-10T23:29:42.749Z,4.37
2019-06-10T23:32:12.814Z,6.90
2019-06-10T23:34:42.122Z,7.07
2019-06-10T23:37:09.598Z,5.40
2019-06-10T23:39:37.214Z,6.27
2019-06-10T23:42:04.848Z,5.07
2019-06-10T23:44:33.026Z,4.50
2019-06-10T23:47:03.651Z,8.10
2019-06-10T23:49:32.270Z,5.97
2019-06-10T23:52:00.933Z,4.00
2019-06-10T23:54:29.393Z,5.03
2019-06-10T23:56:57.017Z,3.50
2019-06-10T23:59:24.638Z,5.37
